Time;durP1;ratioP1;P1;durP2;ratioP2;P2;SDS_P1;SDS_P2;PMS_P1;PMS_P2;Temp;Humidity;BMP_temperature;BMP_pressure;BME280_temperature;BME280_humidity;BME280_pressure;Samples;Min_cycle;Max_cycle;Signal;HPM_P1;HPM_P2
2021/09/24 00:00:15;;;;;;;14.90;1.93;;;;;;;-145.18;100.00;60484.78;5082714;28;20024;-69
2021/09/24 00:02:41;;;;;;;11.30;2.33;;;;;;;-145.18;100.00;60484.78;5077973;28;20044;-70
2021/09/24 00:05:08;;;;;;;11.33;1.70;;;;;;;-145.18;100.00;60484.78;5079581;28;20062;-69
2021/09/24 00:07:34;;;;;;;8.87;1.70;;;;;;;-145.18;100.00;60484.78;5079753;28;20050;-69
2021/09/24 00:09:59;;;;;;;6.20;1.53;;;;;;;-145.18;100.00;60484.78;5079265;28;20032;-69
2021/09/24 00:12:25;;;;;;;6.27;1.70;;;;;;;-145.18;100.00;60484.78;5085158;28;20402;-69
2021/09/24 00:14:51;;;;;;;10.77;2.00;;;;;;;-145.18;100.00;60484.78;5080299;28;20268;-69
2021/09/24 00:17:16;;;;;;;10.07;1.80;;;;;;;-145.18;100.00;60484.78;5083400;28;20081;-70
2021/09/24 00:19:42;;;;;;;11.23;1.73;;;;;;;-145.18;100.00;60484.78;5080102;28;20268;-70
2021/09/24 00:22:07;;;;;;;11.60;1.73;;;;;;;-145.18;100.00;60484.78;5089614;28;20437;-70
2021/09/24 00:24:33;;;;;;;12.33;2.00;;;;;;;-145.18;100.00;60484.78;5086479;28;20264;-70
2021/09/24 00:26:59;;;;;;;11.63;2.57;;;;;;;-145.18;100.00;60484.78;5083002;28;20237;-70
2021/09/24 00:29:24;;;;;;;8.77;1.87;;;;;;;-145.18;100.00;60484.78;5077015;28;20023;-70
2021/09/24 00:31:50;;;;;;;9.83;2.40;;;;;;;-145.18;100.00;60484.78;5082531;28;20024;-70
2021/09/24 00:34:15;;;;;;;9.63;2.10;;;;;;;-145.18;100.00;60484.78;5081653;28;20020;-69
2021/09/24 00:36:41;;;;;;;10.53;1.90;;;;;;;-145.18;100.00;60484.78;5077972;28;20451;-69
2021/09/24 00:39:06;;;;;;;11.93;1.83;;;;;;;-145.18;100.00;60484.78;5081669;28;20035;-69
2021/09/24 00:41:32;;;;;;;12.43;2.17;;;;;;;-145.18;100.00;60484.78;5082598;28;20032;-69
2021/09/24 00:43:57;;;;;;;9.87;2.00;;;;;;;-145.18;100.00;60484.78;5082888;28;20035;-69
2021/09/24 00:46:23;;;;;;;10.00;2.03;;;;;;;-145.18;100.00;60484.78;5079825;28;20052;-69
2021/09/24 00:48:48;;;;;;;10.83;2.50;;;;;;;-145.18;100.00;60484.78;5081718;28;20743;-69
2021/09/24 00:51:14;;;;;;;10.47;1.83;;;;;;;-145.18;100.00;60484.78;5080563;28;20028;-69
2021/09/24 00:53:40;;;;;;;16.70;2.13;;;;;;;-145.18;100.00;60484.78;5078396;28;20138;-69
2021/09/24 00:56:08;;;;;;;14.43;2.47;;;;;;;-145.18;100.00;60484.78;5082509;28;20054;-69
2021/09/24 00:58:34;;;;;;;10.73;2.00;;;;;;;-145.18;100.00;60484.78;5084402;28;20301;-68
2021/09/24 01:01:00;;;;;;;13.70;3.17;;;;;;;-145.18;100.00;60484.78;5078934;28;20131;-68
2021/09/24 01:03:25;;;;;;;5.80;1.80;;;;;;;-145.18;100.00;60484.78;5081134;28;20416;-68
2021/09/24 01:05:51;;;;;;;10.37;2.13;;;;;;;-145.18;100.00;60484.78;5088995;28;20023;-68
2021/09/24 01:08:16;;;;;;;9.57;2.23;;;;;;;-145.18;100.00;60484.78;5078915;28;20104;-68
2021/09/24 01:10:42;;;;;;;8.37;1.73;;;;;;;-145.18;100.00;60484.78;5079295;28;20305;-68
2021/09/24 01:13:08;;;;;;;8.20;2.20;;;;;;;-145.18;100.00;60484.78;5069871;28;20460;-68
2021/09/24 01:15:34;;;;;;;13.07;2.23;;;;;;;-145.18;100.00;60484.78;5079033;28;20048;-68
2021/09/24 01:17:59;;;;;;;14.83;1.87;;;;;;;-145.18;100.00;60484.78;5075248;28;20459;-68
2021/09/24 01:20:26;;;;;;;9.33;1.80;;;;;;;-145.18;100.00;60484.78;5079082;28;20024;-68
2021/09/24 01:22:52;;;;;;;11.33;1.90;;;;;;;-145.18;100.00;60484.78;5072907;28;20024;-68
2021/09/24 01:25:20;;;;;;;10.77;2.50;;;;;;;-145.18;100.00;60484.78;5079091;28;20350;-68
2021/09/24 01:27:46;;;;;;;12.20;2.07;;;;;;;-145.18;100.00;60484.78;5077957;28;20403;-67
2021/09/24 01:30:12;;;;;;;11.67;2.03;;;;;;;-145.18;100.00;60484.78;5078850;28;20035;-67
2021/09/24 01:32:38;;;;;;;12.53;1.90;;;;;;;-145.18;100.00;60484.78;5067080;28;20070;-67
2021/09/24 01:35:07;;;;;;;11.97;2.27;;;;;;;-145.18;100.00;60484.78;5078576;28;20122;-68
2021/09/24 01:37:34;;;;;;;15.80;3.03;;;;;;;-145.18;100.00;60484.78;5078648;28;20495;-68
2021/09/24 01:40:00;;;;;;;9.67;1.90;;;;;;;-145.18;100.00;60484.78;5068075;28;20032;-68
2021/09/24 01:42:26;;;;;;;6.73;1.80;;;;;;;-145.18;100.00;60484.78;5078757;28;20032;-68
2021/09/24 01:44:52;;;;;;;18.80;2.33;;;;;;;-145.18;100.00;60484.78;5078425;28;20638;-68
2021/09/24 01:47:18;;;;;;;10.90;2.23;;;;;;;-145.18;100.00;60484.78;5076953;28;20132;-68
2021/09/24 01:49:43;;;;;;;15.17;3.30;;;;;;;-145.18;100.00;60484.78;5079141;28;20388;-68
2021/09/24 01:52:09;;;;;;;12.03;2.07;;;;;;;-145.18;100.00;60484.78;5075636;28;20299;-68
2021/09/24 01:54:35;;;;;;;11.13;2.30;;;;;;;-145.18;100.00;60484.78;5079046;28;20384;-67
2021/09/24 01:57:00;;;;;;;12.80;2.17;;;;;;;-145.18;100.00;60484.78;5070117;28;20062;-67
2021/09/24 01:59:26;;;;;;;22.07;2.80;;;;;;;-145.18;100.00;60484.78;5077573;28;20032;-67
2021/09/24 02:01:51;;;;;;;9.10;2.27;;;;;;;-145.18;100.00;60484.78;5077900;28;20173;-67
2021/09/24 02:04:18;;;;;;;12.77;1.90;;;;;;;-145.18;100.00;60484.78;5076912;28;20511;-67
2021/09/24 02:06:44;;;;;;;10.90;2.50;;;;;;;-145.18;100.00;60484.78;5077724;28;20051;-67
2021/09/24 02:09:09;;;;;;;6.07;1.50;;;;;;;-145.18;100.00;60484.78;5078463;28;20036;-67
2021/09/24 02:11:35;;;;;;;11.87;2.00;;;;;;;-145.18;100.00;60484.78;5072099;28;20115;-67
2021/09/24 02:14:01;;;;;;;8.70;1.67;;;;;;;-145.18;100.00;60484.78;5078543;28;20231;-67
2021/09/24 02:16:27;;;;;;;8.73;2.40;;;;;;;-145.18;100.00;60484.78;5063767;28;20034;-68
2021/09/24 02:18:53;;;;;;;8.10;1.60;;;;;;;-145.18;100.00;60484.78;5078615;28;20043;-68
2021/09/24 02:21:18;;;;;;;12.60;1.87;;;;;;;-145.18;100.00;60484.78;5078252;28;20024;-68
2021/09/24 02:23:44;;;;;;;16.20;1.93;;;;;;;-145.18;100.00;60484.78;5078343;28;20036;-68
2021/09/24 02:26:09;;;;;;;12.33;1.83;;;;;;;-145.18;100.00;60484.78;5078522;28;20031;-68
2021/09/24 02:28:38;;;;;;;12.00;2.13;;;;;;;-145.18;100.00;60484.78;5076582;28;20097;-68
2021/09/24 02:31:11;;;;;;;12.17;2.77;;;;;;;-145.18;100.00;60484.78;5059400;28;20067;-68
2021/09/24 02:33:37;;;;;;;10.50;1.77;;;;;;;-145.18;100.00;60484.78;5077640;28;20031;-68
2021/09/24 02:36:05;;;;;;;11.50;2.00;;;;;;;-145.18;100.00;60484.78;5078386;28;20097;-69
2021/09/24 02:38:31;;;;;;;9.67;1.73;;;;;;;-145.18;100.00;60484.78;5077699;28;20387;-69
2021/09/24 02:40:57;;;;;;;10.23;2.20;;;;;;;-145.18;100.00;60484.78;5078031;28;20039;-69
2021/09/24 02:43:22;;;;;;;11.53;2.30;;;;;;;-145.18;100.00;60484.78;5078392;28;20180;-69
2021/09/24 02:45:48;;;;;;;8.53;2.13;;;;;;;-145.18;100.00;60484.78;5078105;28;20028;-69
2021/09/24 02:48:13;;;;;;;9.47;1.70;;;;;;;-145.18;100.00;60484.78;5074102;28;20115;-69
2021/09/24 02:50:39;;;;;;;11.43;1.73;;;;;;;-145.18;100.00;60484.78;5078652;28;20449;-68
2021/09/24 02:53:04;;;;;;;10.50;2.43;;;;;;;-145.18;100.00;60484.78;5078064;28;20028;-68
2021/09/24 02:55:30;;;;;;;8.03;2.10;;;;;;;-145.18;100.00;60484.78;5070829;28;20032;-68
2021/09/24 02:57:56;;;;;;;11.13;2.17;;;;;;;-145.18;100.00;60484.78;5070555;28;20024;-68
2021/09/24 03:00:22;;;;;;;12.33;1.97;;;;;;;-145.18;100.00;60484.78;5078273;28;20035;-68
2021/09/24 03:02:47;;;;;;;8.47;2.07;;;;;;;-145.18;100.00;60484.78;5077923;28;20048;-68
2021/09/24 03:05:13;;;;;;;6.43;2.33;;;;;;;-145.18;100.00;60484.78;5078741;28;20027;-67
2021/09/24 03:07:38;;;;;;;11.77;2.40;;;;;;;-145.18;100.00;60484.78;5081752;28;20035;-68
2021/09/24 03:10:05;;;;;;;5.97;2.23;;;;;;;-145.18;100.00;60484.78;5082130;28;20055;-68
2021/09/24 03:12:31;;;;;;;9.20;2.07;;;;;;;-145.18;100.00;60484.78;5078028;28;20203;-68
2021/09/24 03:14:57;;;;;;;8.23;1.87;;;;;;;-145.18;100.00;60484.78;5081897;28;20570;-68
2021/09/24 03:17:22;;;;;;;8.33;2.00;;;;;;;-145.18;100.00;60484.78;5077042;28;20291;-67
2021/09/24 03:19:48;;;;;;;7.07;1.90;;;;;;;-145.18;100.00;60484.78;5077432;28;20024;-67
2021/09/24 03:22:13;;;;;;;13.63;1.60;;;;;;;-145.18;100.00;60484.78;5074369;28;20462;-67
2021/09/24 03:24:40;;;;;;;9.90;2.20;;;;;;;-145.18;100.00;60484.78;5081029;28;20032;-68
2021/09/24 03:27:06;;;;;;;7.90;1.93;;;;;;;-145.18;100.00;60484.78;5080459;28;20571;-68
2021/09/24 03:29:33;;;;;;;8.07;2.17;;;;;;;-145.18;100.00;60484.78;5081763;28;20119;-68
2021/09/24 03:31:59;;;;;;;6.43;1.80;;;;;;;-145.18;100.00;60484.78;5081531;28;20288;-68
2021/09/24 03:34:24;;;;;;;9.37;2.07;;;;;;;-145.18;100.00;60484.78;5080386;28;20055;-68
2021/09/24 03:36:50;;;;;;;9.07;1.60;;;;;;;-145.18;100.00;60484.78;5079137;28;20434;-68
2021/09/24 03:39:15;;;;;;;9.80;2.13;;;;;;;-145.18;100.00;60484.78;5078314;28;20047;-68
2021/09/24 03:41:42;;;;;;;8.43;1.90;;;;;;;-145.18;100.00;60484.78;5070862;28;20078;-68
2021/09/24 03:44:08;;;;;;;7.13;1.60;;;;;;;-145.18;100.00;60484.78;5080894;28;20036;-68
2021/09/24 03:46:34;;;;;;;9.10;1.70;;;;;;;-145.18;100.00;60484.78;5062175;28;20060;-68
2021/09/24 03:49:00;;;;;;;11.33;2.40;;;;;;;-145.18;100.00;60484.78;5080393;28;20097;-68
2021/09/24 03:51:26;;;;;;;9.17;1.77;;;;;;;-145.18;100.00;60484.78;5080468;28;20255;-68
2021/09/24 03:53:51;;;;;;;13.47;2.10;;;;;;;-145.18;100.00;60484.78;5080664;28;20115;-68
2021/09/24 03:56:17;;;;;;;8.30;1.63;;;;;;;-145.18;100.00;60484.78;5074924;28;20345;-68
2021/09/24 03:58:42;;;;;;;8.17;2.63;;;;;;;-145.18;100.00;60484.78;5075459;28;20040;-68
2021/09/24 04:01:08;;;;;;;8.17;2.00;;;;;;;-145.18;100.00;60484.78;5069984;28;20222;-68
2021/09/24 04:03:33;;;;;;;16.37;2.10;;;;;;;-145.18;100.00;60484.78;5068741;28;20105;-68
2021/09/24 04:05:59;;;;;;;10.53;1.90;;;;;;;-145.18;100.00;60484.78;5080197;28;20027;-68
2021/09/24 04:08:24;;;;;;;4.87;1.70;;;;;;;-145.18;100.00;60484.78;5080707;28;20323;-68
2021/09/24 04:10:51;;;;;;;11.17;2.23;;;;;;;-145.18;100.00;60484.78;5074123;28;20371;-68
2021/09/24 04:13:18;;;;;;;8.53;1.87;;;;;;;-145.18;100.00;60484.78;5077900;28;20378;-68
2021/09/24 04:15:43;;;;;;;7.57;1.77;;;;;;;-145.18;100.00;60484.78;5080204;28;20260;-68
2021/09/24 04:18:09;;;;;;;8.30;2.33;;;;;;;-145.18;100.00;60484.78;5071976;28;20025;-68
2021/09/24 04:20:34;;;;;;;6.20;1.63;;;;;;;-145.18;100.00;60484.78;5068089;28;20607;-68
2021/09/24 04:23:00;;;;;;;10.13;2.73;;;;;;;-145.18;100.00;60484.78;5068810;28;20035;-67
2021/09/24 04:25:25;;;;;;;8.10;1.87;;;;;;;-145.18;100.00;60484.78;5071605;28;20050;-68
2021/09/24 04:27:51;;;;;;;8.70;1.93;;;;;;;-145.18;100.00;60484.78;5077754;28;20036;-67
2021/09/24 04:30:17;;;;;;;10.93;2.30;;;;;;;-145.18;100.00;60484.78;5080600;28;20082;-68
2021/09/24 04:32:42;;;;;;;8.97;2.00;;;;;;;-145.18;100.00;60484.78;5079415;28;20036;-68
2021/09/24 04:35:08;;;;;;;10.10;2.17;;;;;;;-145.18;100.00;60484.78;5079949;28;20725;-68
2021/09/24 04:37:34;;;;;;;9.63;2.07;;;;;;;-145.18;100.00;60484.78;5079621;28;20258;-68
2021/09/24 04:39:59;;;;;;;15.30;2.63;;;;;;;-145.18;100.00;60484.78;5072963;28;20446;-68
2021/09/24 04:42:27;;;;;;;14.20;2.30;;;;;;;-145.18;100.00;60484.78;5079164;28;20020;-68
2021/09/24 04:44:52;;;;;;;9.70;2.23;;;;;;;-145.18;100.00;60484.78;5080532;28;20043;-68
2021/09/24 04:47:18;;;;;;;10.03;2.50;;;;;;;-145.18;100.00;60484.78;5072427;28;20417;-68
2021/09/24 04:49:43;;;;;;;11.27;2.40;;;;;;;-145.18;100.00;60484.78;5080177;28;20028;-68
2021/09/24 04:52:09;;;;;;;10.73;1.90;;;;;;;-145.18;100.00;60484.78;5066740;28;20534;-68
2021/09/24 04:54:34;;;;;;;9.00;2.40;;;;;;;-145.18;100.00;60484.78;5079951;28;20154;-68
2021/09/24 04:57:00;;;;;;;11.07;2.57;;;;;;;-145.18;100.00;60484.78;5075532;28;20261;-68
2021/09/24 04:59:25;;;;;;;8.93;2.10;;;;;;;-145.18;100.00;60484.78;5076376;28;20031;-68
2021/09/24 05:01:51;;;;;;;6.73;2.03;;;;;;;-145.18;100.00;60484.78;5079502;28;20179;-68
2021/09/24 05:04:17;;;;;;;11.53;2.30;;;;;;;-145.18;100.00;60484.78;5072941;28;20104;-68
2021/09/24 05:06:42;;;;;;;11.97;1.97;;;;;;;-145.18;100.00;60484.78;5079702;28;20279;-68
2021/09/24 05:09:08;;;;;;;12.00;2.17;;;;;;;-145.18;100.00;60484.78;5079620;28;20036;-68
2021/09/24 05:11:33;;;;;;;6.77;2.17;;;;;;;-145.18;100.00;60484.78;5074243;28;20028;-67
2021/09/24 05:13:59;;;;;;;18.07;3.37;;;;;;;-145.18;100.00;60484.78;5079631;28;20115;-68
2021/09/24 05:16:24;;;;;;;8.10;1.97;;;;;;;-145.18;100.00;60484.78;5080233;28;20174;-68
2021/09/24 05:18:50;;;;;;;9.93;2.20;;;;;;;-145.18;100.00;60484.78;5079122;28;20495;-68
2021/09/24 05:21:15;;;;;;;7.43;2.27;;;;;;;-145.18;100.00;60484.78;5079607;28;20392;-68
2021/09/24 05:23:41;;;;;;;11.93;2.43;;;;;;;-145.18;100.00;60484.78;5079217;28;20028;-68
2021/09/24 05:26:07;;;;;;;6.10;2.57;;;;;;;-145.18;100.00;60484.78;5069091;28;20024;-68
2021/09/24 05:28:32;;;;;;;12.77;2.20;;;;;;;-145.18;100.00;60484.78;5078738;28;20183;-68
2021/09/24 05:30:58;;;;;;;6.33;1.90;;;;;;;-145.18;100.00;60484.78;5074923;28;20028;-67
2021/09/24 05:33:23;;;;;;;10.10;2.30;;;;;;;-145.18;100.00;60484.78;5079263;28;20027;-68
2021/09/24 05:35:49;;;;;;;10.13;1.93;;;;;;;-145.18;100.00;60484.78;5077793;28;20020;-68
2021/09/24 05:38:14;;;;;;;9.07;2.17;;;;;;;-145.18;100.00;60484.78;5069692;28;20020;-68
2021/09/24 05:40:40;;;;;;;7.93;2.27;;;;;;;-145.18;100.00;60484.78;5076642;28;20024;-68
2021/09/24 05:43:06;;;;;;;7.63;2.17;;;;;;;-145.18;100.00;60484.78;5076500;28;20042;-68
2021/09/24 05:45:32;;;;;;;7.50;2.20;;;;;;;-145.18;100.00;60484.78;5078901;28;20747;-68
2021/09/24 05:47:57;;;;;;;13.63;2.17;;;;;;;-145.18;100.00;60484.78;5078428;28;20509;-68
2021/09/24 05:50:23;;;;;;;8.20;1.80;;;;;;;-145.18;100.00;60484.78;5077404;28;20032;-68
2021/09/24 05:52:51;;;;;;;8.77;1.83;;;;;;;-145.18;100.00;60484.78;5066522;28;20028;-68
2021/09/24 05:55:19;;;;;;;10.13;2.53;;;;;;;-145.18;100.00;60484.78;5079387;28;20108;-68
2021/09/24 05:57:45;;;;;;;8.40;2.20;;;;;;;-145.18;100.00;60484.78;5079222;28;20047;-68
2021/09/24 06:00:15;;;;;;;8.80;2.40;;;;;;;-145.18;100.00;60484.78;5070718;28;20032;-68
2021/09/24 06:02:41;;;;;;;8.90;2.20;;;;;;;-145.18;100.00;60484.78;5073725;28;20051;-68
2021/09/24 06:05:08;;;;;;;11.33;1.90;;;;;;;-145.18;100.00;60484.78;5077477;28;20212;-69
2021/09/24 06:07:34;;;;;;;14.60;1.83;;;;;;;-145.18;100.00;60484.78;5062110;28;20567;-69
2021/09/24 06:10:00;;;;;;;9.80;2.47;;;;;;;-145.18;100.00;60484.78;5079273;28;20036;-69
2021/09/24 06:12:25;;;;;;;9.43;2.30;;;;;;;-145.18;100.00;60484.78;5079359;28;20020;-69
2021/09/24 06:14:51;;;;;;;9.23;2.10;;;;;;;-145.18;100.00;60484.78;5079083;28;20035;-69
2021/09/24 06:17:16;;;;;;;8.97;2.00;;;;;;;-145.18;100.00;60484.78;5078962;28;20173;-69
2021/09/24 06:19:42;;;;;;;5.33;1.93;;;;;;;-145.18;100.00;60484.78;5079018;28;20427;-69
2021/09/24 06:22:09;;;;;;;6.07;1.87;;;;;;;-145.18;100.00;60484.78;5078893;28;20043;-69
2021/09/24 06:24:36;;;;;;;12.70;2.73;;;;;;;-145.18;100.00;60484.78;5078879;28;20035;-69
2021/09/24 06:27:02;;;;;;;7.63;2.10;;;;;;;-145.18;100.00;60484.78;5079165;28;20028;-69
2021/09/24 06:29:30;;;;;;;7.03;2.13;;;;;;;-145.18;100.00;60484.78;5078657;28;20165;-69
2021/09/24 06:31:56;;;;;;;11.70;3.50;;;;;;;-145.18;100.00;60484.78;5079041;28;20461;-69
2021/09/24 06:34:21;;;;;;;6.23;1.67;;;;;;;-145.18;100.00;60484.78;5078576;28;20036;-69
2021/09/24 06:36:47;;;;;;;6.07;1.77;;;;;;;-145.18;100.00;60484.78;5078772;28;20236;-69
2021/09/24 06:39:12;;;;;;;4.47;1.90;;;;;;;-145.18;100.00;60484.78;5077819;28;20117;-69
2021/09/24 06:41:38;;;;;;;9.83;2.10;;;;;;;-145.18;100.00;60484.78;5078025;28;20028;-69
2021/09/24 06:44:07;;;;;;;7.07;2.00;;;;;;;-145.18;100.00;60484.78;5078172;28;20028;-69
2021/09/24 06:46:33;;;;;;;8.27;1.90;;;;;;;-145.18;100.00;60484.78;5078597;28;20318;-69
2021/09/24 06:48:58;;;;;;;5.13;1.93;;;;;;;-145.18;100.00;60484.78;5078535;28;20020;-69
2021/09/24 06:51:24;;;;;;;10.47;2.77;;;;;;;-145.18;100.00;60484.78;5078818;28;20024;-69
2021/09/24 06:53:50;;;;;;;8.30;2.10;;;;;;;-145.18;100.00;60484.78;5078338;28;20079;-69
2021/09/24 06:56:15;;;;;;;12.20;1.87;;;;;;;-145.18;100.00;60484.78;5078793;28;20031;-69
2021/09/24 06:58:40;;;;;;;6.70;2.00;;;;;;;-145.18;100.00;60484.78;5078442;28;20055;-69
2021/09/24 07:01:06;;;;;;;12.07;2.70;;;;;;;-145.18;100.00;60484.78;5078517;28;20023;-69
2021/09/24 07:03:31;;;;;;;9.47;2.50;;;;;;;-145.18;100.00;60484.78;5078017;28;20156;-69
2021/09/24 07:05:57;;;;;;;8.97;2.13;;;;;;;-145.18;100.00;60484.78;5069412;28;20124;-69
2021/09/24 07:08:22;;;;;;;6.53;1.83;;;;;;;-145.18;100.00;60484.78;5068344;28;20506;-68
2021/09/24 07:10:48;;;;;;;7.13;2.10;;;;;;;-145.18;100.00;60484.78;5078952;28;20077;-69
2021/09/24 07:13:13;;;;;;;6.70;2.33;;;;;;;-145.18;100.00;60484.78;5077873;28;20047;-69
2021/09/24 07:15:43;;;;;;;7.73;1.93;;;;;;;-145.18;100.00;60484.78;5078657;28;20031;-69
2021/09/24 07:18:10;;;;;;;7.30;2.20;;;;;;;-145.18;100.00;60484.78;5078102;28;20024;-69
2021/09/24 07:20:36;;;;;;;5.50;1.90;;;;;;;-145.18;100.00;60484.78;5078108;28;20028;-69
2021/09/24 07:23:01;;;;;;;10.07;2.50;;;;;;;-145.18;100.00;60484.78;5078414;28;20103;-69
2021/09/24 07:25:27;;;;;;;8.20;2.00;;;;;;;-145.18;100.00;60484.78;5078150;28;20036;-69
2021/09/24 07:27:52;;;;;;;8.17;2.13;;;;;;;-145.18;100.00;60484.78;5078030;28;20043;-69
2021/09/24 07:30:18;;;;;;;10.77;2.50;;;;;;;-145.18;100.00;60484.78;5078338;28;20035;-69
2021/09/24 07:32:44;;;;;;;7.83;2.20;;;;;;;-145.18;100.00;60484.78;5078037;28;20067;-69
2021/09/24 07:35:10;;;;;;;4.97;2.10;;;;;;;-145.18;100.00;60484.78;5078470;28;20191;-69
2021/09/24 07:37:35;;;;;;;13.93;3.13;;;;;;;-145.18;100.00;60484.78;5078041;28;20602;-69
2021/09/24 07:40:01;;;;;;;7.10;2.00;;;;;;;-145.18;100.00;60484.78;5078084;28;20115;-69
2021/09/24 07:42:26;;;;;;;8.17;2.23;;;;;;;-145.18;100.00;60484.78;5077891;28;20260;-69
2021/09/24 07:44:52;;;;;;;10.57;2.43;;;;;;;-145.18;100.00;60484.78;5068150;28;20032;-69
2021/09/24 07:47:17;;;;;;;6.57;2.13;;;;;;;-145.18;100.00;60484.78;5058402;28;20505;-69
2021/09/24 07:49:44;;;;;;;9.23;2.10;;;;;;;-145.18;100.00;60484.78;5077829;28;20294;-69
2021/09/24 07:52:11;;;;;;;8.43;2.40;;;;;;;-145.18;100.00;60484.78;5080401;28;20128;-69
2021/09/24 07:54:36;;;;;;;6.93;2.37;;;;;;;-145.18;100.00;60484.78;5081719;28;20039;-69
2021/09/24 07:57:02;;;;;;;7.53;2.43;;;;;;;-145.18;100.00;60484.78;5081408;28;20020;-69
2021/09/24 07:59:28;;;;;;;7.40;2.80;;;;;;;-145.18;100.00;60484.78;5081455;28;20035;-69
2021/09/24 08:01:53;;;;;;;8.80;2.20;;;;;;;-145.18;100.00;60484.78;5081095;28;20036;-69
2021/09/24 08:04:19;;;;;;;13.83;2.20;;;;;;;-145.18;100.00;60484.78;5081092;28;20036;-69
2021/09/24 08:06:44;;;;;;;6.43;2.03;;;;;;;-145.18;100.00;60484.78;5081485;28;20020;-69
2021/09/24 08:09:10;;;;;;;7.97;2.30;;;;;;;-145.18;100.00;60484.78;5081166;28;20168;-69
2021/09/24 08:11:35;;;;;;;8.07;2.13;;;;;;;-145.18;100.00;60484.78;5081032;28;20024;-69
2021/09/24 08:14:02;;;;;;;9.93;2.30;;;;;;;-145.18;100.00;60484.78;5081297;28;20027;-69
2021/09/24 08:16:27;;;;;;;7.57;2.27;;;;;;;-145.18;100.00;60484.78;5081319;28;20426;-69
2021/09/24 08:18:53;;;;;;;6.63;2.10;;;;;;;-145.18;100.00;60484.78;5080714;28;20031;-69
2021/09/24 08:21:20;;;;;;;6.00;1.97;;;;;;;-145.18;100.00;60484.78;5081152;28;20020;-69
2021/09/24 08:23:46;;;;;;;6.23;2.10;;;;;;;-145.18;100.00;60484.78;5080935;28;20511;-69
2021/09/24 08:26:12;;;;;;;5.27;1.90;;;;;;;-145.18;100.00;60484.78;5081109;28;20294;-69
2021/09/24 08:28:37;;;;;;;7.40;2.00;;;;;;;-145.18;100.00;60484.78;5080861;28;20026;-69
2021/09/24 08:31:03;;;;;;;8.03;1.77;;;;;;;-145.18;100.00;60484.78;5080729;28;20031;-69
2021/09/24 08:33:28;;;;;;;6.17;1.60;;;;;;;-145.18;100.00;60484.78;5080850;28;20023;-69
2021/09/24 08:35:54;;;;;;;5.50;1.80;;;;;;;-145.18;100.00;60484.78;5080989;28;20372;-69
2021/09/24 08:38:20;;;;;;;5.17;2.10;;;;;;;-145.18;100.00;60484.78;5080687;28;20476;-69
2021/09/24 08:40:45;;;;;;;7.80;2.00;;;;;;;-145.18;100.00;60484.78;5080887;28;20137;-69
2021/09/24 08:43:15;;;;;;;8.10;2.30;;;;;;;-145.18;100.00;60484.78;5080972;28;20545;-69
2021/09/24 08:45:42;;;;;;;5.97;2.20;;;;;;;-145.18;100.00;60484.78;5080706;28;20050;-69
2021/09/24 08:48:11;;;;;;;6.73;1.87;;;;;;;-145.18;100.00;60484.78;5080855;28;20777;-69
2021/09/24 08:50:38;;;;;;;6.93;2.20;;;;;;;-145.18;100.00;60484.78;5080581;28;20036;-68
2021/09/24 08:53:05;;;;;;;7.27;2.20;;;;;;;-145.18;100.00;60484.78;5080220;28;20032;-68
2021/09/24 08:55:31;;;;;;;10.60;2.83;;;;;;;-145.18;100.00;60484.78;5080348;28;20042;-69
2021/09/24 08:57:57;;;;;;;8.13;2.03;;;;;;;-145.18;100.00;60484.78;5080334;28;20028;-69
2021/09/24 09:00:23;;;;;;;7.77;2.67;;;;;;;-145.18;100.00;60484.78;5080460;28;20019;-69
2021/09/24 09:03:07;;;;;;;5.67;2.50;;;;;;;-145.18;100.00;60484.78;5078975;28;20040;-69
2021/09/24 09:05:50;;;;;;;6.67;2.33;;;;;;;-145.18;100.00;60484.78;5080399;28;20330;-69
2021/09/24 09:08:24;;;;;;;6.80;2.27;;;;;;;-145.18;100.00;60484.78;5080008;28;20032;-69
2021/09/24 09:11:16;;;;;;;6.97;2.30;;;;;;;-145.18;100.00;60484.78;5080127;28;20027;-69
2021/09/24 09:13:55;;;;;;;8.15;2.22;;;;;;;-145.18;100.00;60484.78;5049770;28;20174;-69
2021/09/24 09:16:29;;;;;;;22.17;2.90;;;;;;;-145.18;100.00;60484.78;5036543;28;20325;-69
2021/09/24 09:19:10;;;;;;;7.93;2.27;;;;;;;-145.18;100.00;60484.78;5041563;28;20098;-69
2021/09/24 09:21:38;;;;;;;11.77;2.83;;;;;;;-145.18;100.00;60484.78;5052155;28;20033;-69
2021/09/24 09:24:21;;;;;;;5.33;2.17;;;;;;;-145.18;100.00;60484.78;5044358;28;20216;-69
2021/09/24 09:26:47;;;;;;;7.57;2.60;;;;;;;-145.18;100.00;60484.78;5044142;28;20052;-68
2021/09/24 09:29:13;;;;;;;11.75;2.60;;;;;;;-145.18;100.00;60484.78;5042731;28;20212;-68
2021/09/24 09:31:39;;;;;;;8.18;2.25;;;;;;;-145.18;100.00;60484.78;5056252;28;20285;-69
2021/09/24 09:34:11;;;;;;;9.20;3.05;;;;;;;-145.18;100.00;60484.78;5042327;28;20029;-69
2021/09/24 09:36:39;;;;;;;7.75;2.50;;;;;;;-145.18;100.00;60484.78;5036436;28;20028;-69
2021/09/24 09:39:15;;;;;;;7.00;2.28;;;;;;;-145.18;100.00;60484.78;5037011;28;20293;-69
2021/09/24 09:41:49;;;;;;;6.07;2.47;;;;;;;-145.18;100.00;60484.78;5050559;28;20141;-69
2021/09/24 09:44:26;;;;;;;10.07;2.63;;;;;;;-145.18;100.00;60484.78;5055821;28;20058;-69
2021/09/24 09:46:52;;;;;;;8.00;2.63;;;;;;;-145.18;100.00;60484.78;5056251;28;20231;-69
2021/09/24 09:49:17;;;;;;;7.67;2.50;;;;;;;-145.18;100.00;60484.78;5051236;28;20248;-69
2021/09/24 09:51:45;;;;;;;6.47;2.73;;;;;;;-145.18;100.00;60484.78;5067989;28;20039;-69
2021/09/24 09:54:30;;;;;;;5.35;2.63;;;;;;;-145.18;100.00;60484.78;5079185;28;20157;-69
2021/09/24 09:57:13;;;;;;;7.33;2.63;;;;;;;-145.18;100.00;60484.78;5079362;28;20028;-69
2021/09/24 09:59:39;;;;;;;5.35;2.33;;;;;;;-145.18;100.00;60484.78;5068776;28;20187;-69
2021/09/24 10:02:13;;;;;;;12.80;3.30;;;;;;;-145.18;100.00;60484.78;5078953;28;20055;-69
2021/09/24 10:04:40;;;;;;;7.80;3.13;;;;;;;-145.18;100.00;60484.78;5071551;28;20028;-69
2021/09/24 10:07:17;;;;;;;11.07;3.30;;;;;;;-145.18;100.00;60484.78;5079432;28;20169;-69
2021/09/24 10:09:45;;;;;;;6.53;2.80;;;;;;;-145.18;100.00;60484.78;5079244;28;20115;-69
2021/09/24 10:12:22;;;;;;;10.30;3.00;;;;;;;-145.18;100.00;60484.78;5065432;28;20238;-69
2021/09/24 10:14:52;;;;;;;9.97;3.87;;;;;;;-145.18;100.00;60484.78;5078997;28;20346;-69
2021/09/24 10:17:20;;;;;;;6.97;2.97;;;;;;;-145.18;100.00;60484.78;5078565;28;20180;-69
2021/09/24 10:19:47;;;;;;;8.13;3.00;;;;;;;-145.18;100.00;60484.78;5078810;28;20028;-69
2021/09/24 10:22:13;;;;;;;10.17;3.40;;;;;;;-145.18;100.00;60484.78;5070759;28;20150;-69
2021/09/24 10:24:40;;;;;;;8.03;3.00;;;;;;;-145.18;100.00;60484.78;5078687;28;20493;-69
2021/09/24 10:27:10;;;;;;;8.47;3.77;;;;;;;-145.18;100.00;60484.78;5078811;28;20128;-69
2021/09/24 10:29:44;;;;;;;7.10;3.37;;;;;;;-145.18;100.00;60484.78;5078536;28;20040;-69
2021/09/24 10:32:20;;;;;;;8.77;3.40;;;;;;;-145.18;100.00;60484.78;5078999;28;20042;-69
2021/09/24 10:35:17;;;;;;;10.47;3.00;;;;;;;-145.18;100.00;60484.78;5078601;28;20578;-69
2021/09/24 10:37:47;;;;;;;11.27;3.60;;;;;;;-145.18;100.00;60484.78;5078167;28;20047;-69
2021/09/24 10:40:27;;;;;;;8.27;3.70;;;;;;;-145.18;100.00;60484.78;5078755;28;20020;-69
2021/09/24 10:43:03;;;;;;;7.50;3.77;;;;;;;-145.18;100.00;60484.78;5076512;28;20165;-69
2021/09/24 10:45:40;;;;;;;8.23;3.83;;;;;;;-145.18;100.00;60484.78;5078593;28;20499;-69
2021/09/24 10:48:23;;;;;;;11.70;4.43;;;;;;;-145.18;100.00;60484.78;5083756;28;20480;-69
2021/09/24 10:50:51;;;;;;;11.30;4.30;;;;;;;-145.18;100.00;60484.78;5077751;28;20033;-69
2021/09/24 10:53:48;;;;;;;10.57;4.00;;;;;;;-145.18;100.00;60484.78;5081082;28;20035;-69
2021/09/24 10:56:25;;;;;;;9.47;4.20;;;;;;;-145.18;100.00;60484.78;4995716;28;20263;-69
2021/09/24 10:58:50;;;;;;;10.03;4.57;;;;;;;-145.18;100.00;60484.78;4993409;28;20081;-69
2021/09/24 11:01:33;;;;;;;12.93;4.73;;;;;;;-145.18;100.00;60484.78;4999071;28;20522;-69
2021/09/24 11:04:09;;;;;;;11.77;4.93;;;;;;;-145.18;100.00;60484.78;5006436;28;20140;-69
2021/09/24 11:06:47;;;;;;;8.90;4.70;;;;;;;-145.18;100.00;60484.78;4990714;28;20168;-69